James Turecamo — WDC7565 — position and weather

sailwx.info

Track history (hours):
 
Tides and Currents Weather Stations Pressure Air Temp Water Temp Dewpoint Dewpoint Depression Visibility Wind Speed Wind Dir Waves Ship Positions

James Turecamo

Owner: Moran Towing Corporation, New Canaan, CT. More information available from US FCC via Universal Licensing System and Coast Guard Vessel Documentation Center.

Last reported at 2015-May-23 09:07 UTC. Time now 2015-May-23 11:49 UTC.
Position N 40°38' W 074°08'.

Length 27 m; draft 4.5 m.

Type: Tug. MMSI: 367073380.

Date/timePositionNaut miles runAvg speedWind from/ knotsBaromVisibWave heightAir tempDewpointWater temp
2015-May-23 09:07N 40°38' W 074°08'0 0.0
2015-May-23 08:33N 40°38' W 074°08'0 0.0
2015-May-23 07:22N 40°38' W 074°08'5 5.8
2015-May-23 06:32N 40°35' W 074°12'1 0.8
2015-May-23 05:14N 40°36' W 074°12'3 4.3
2015-May-23 04:33N 40°39' W 074°10'2 0.6
2015-May-23 01:30N 40°38' W 074°08'0 0.0
2015-May-22 23:03N 40°38' W 074°08'0 0.0
2015-May-22 22:15N 40°38' W 074°08'3 4.6
2015-May-22 21:33N 40°42' W 074°08'1 1.5
2015-May-22 20:33N 40°40' W 074°08'1 0.6
2015-May-22 19:33N 40°40' W 074°09'2 1.8
2015-May-22 18:33N 40°39' W 074°07'0 0.1
2015-May-22 16:33N 40°39' W 074°07'4 0.8
2015-May-22 11:33N 40°38' W 074°12'5 2.1
2015-May-22 09:18N 40°34' W 074°14'3 1.0
2015-May-22 06:11N 40°36' W 074°12'1 1.0
2015-May-22 05:21N 40°37' W 074°12'4 1.8
2015-May-22 03:20N 40°38' W 074°08'0 0.0
2015-May-22 00:09N 40°38' W 074°08'0 0.0
2015-May-21 23:23N 40°38' W 074°08'0 0.0
2015-May-21 22:26N 40°38' W 074°08'0 0.0
2015-May-21 21:24N 40°38' W 074°08'0 0.0
2015-May-21 20:31N 40°38' W 074°08'0 0.0
2015-May-21 19:33N 40°38' W 074°08'3 2.5
2015-May-21 18:33N 40°41' W 074°08'3 0.4
2015-May-21 11:33N 40°38' W 074°08'0 0.0
2015-May-21 10:12N 40°38' W 074°08'0 0.0
2015-May-21 09:17N 40°38' W 074°08'0 0.0
2015-May-21 08:33N 40°38' W 074°08'0 0.0
2015-May-21 07:30N 40°38' W 074°08'0 0.0
2015-May-21 06:27N 40°38' W 074°08'0 0.0
2015-May-21 05:13N 40°38' W 074°08'0 0.0
2015-May-21 04:07N 40°38' W 074°08'0 0.0
2015-May-21 02:22N 40°38' W 074°08'0 0.0
2015-May-21 01:22N 40°38' W 074°08'0 0.0
2015-May-21 00:10N 40°38' W 074°08'7 8.2
2015-May-20 23:22N 40°33' W 074°13'4 1.6
2015-May-20 20:33N 40°38' W 074°12'3 3.3
2015-May-20 19:31N 40°38' W 074°08'0 0.0
2015-May-20 18:32N 40°38' W 074°08'2 2.0
2015-May-20 17:34N 40°39' W 074°05'2 1.9
2015-May-20 16:30N 40°38' W 074°08'0 0.0
2015-May-20 15:32N 40°38' W 074°08'0 0.0
2015-May-20 14:32N 40°38' W 074°08'0 0.0
2015-May-20 13:33N 40°38' W 074°08'3 3.4
2015-May-20 12:33N 40°38' W 074°12'2 1.5
2015-May-20 11:33N 40°39' W 074°10'5 5.4
2015-May-20 10:33N 40°38' W 074°03'3 2.8
2015-May-20 09:33N 40°39' W 074°07'1 0.3
2015-May-20 07:05N 40°38' W 074°08'0 0.0
2015-May-20 06:32N 40°38' W 074°08'0 0.0
2015-May-20 05:14N 40°38' W 074°08'4 5.4
2015-May-20 04:33N 40°41' W 074°04'1 0.6
2015-May-20 03:33N 40°41' W 074°04'2 2.0
2015-May-20 02:33N 40°39' W 074°04'0 0.4
2015-May-20 01:33N 40°38' W 074°04'0 0.0
2015-May-20 00:33N 40°38' W 074°04'1 1.2
2015-May-19 23:27N 40°39' W 074°06'1 1.7
2015-May-19 22:33N 40°38' W 074°08'0 0.0
2015-May-19 21:33N 40°38' W 074°08'0 0.0
2015-May-19 20:33N 40°38' W 074°08'0 0.0
2015-May-19 19:33N 40°38' W 074°08'0 0.0
2015-May-19 18:33N 40°38' W 074°08'3 3.0
2015-May-19 17:33N 40°41' W 074°08'3 2.8
2015-May-19 16:31N 40°38' W 074°08'3 2.8
2015-May-19 15:33N 40°41' W 074°08'2 1.8
2015-May-19 14:33N 40°39' W 074°09'1 0.6
2015-May-19 12:33N 40°38' W 074°08'0 0.0
2015-May-19 11:24N 40°38' W 074°08'3 3.6
2015-May-19 10:33N 40°42' W 074°08'0 0.3
2015-May-19 09:32N 40°42' W 074°09'2 2.1
2015-May-19 08:33N 40°40' W 074°09'2 0.7
2015-May-19 06:21N 40°38' W 074°08'1 0.6
2015-May-19 04:32N 40°39' W 074°09'9 8.6
2015-May-19 03:32N 40°31' W 074°15'4 2.1
2015-May-19 01:33N 40°35' W 074°13'0 0.3
2015-May-19 00:28N 40°35' W 074°13'4 1.5
2015-May-18 21:33N 40°39' W 074°10'3 3.2
2015-May-18 20:33N 40°42' W 074°08'0 0.4
2015-May-18 19:33N 40°42' W 074°09'0 0.2
2015-May-18 18:33N 40°42' W 074°08'6 5.8
2015-May-18 17:33N 40°37' W 074°12'0 0.0
2015-May-18 16:31N 40°37' W 074°12'4 4.1
2015-May-18 15:33N 40°38' W 074°08'0 0.0
2015-May-18 14:33N 40°38' W 074°08'2 1.6
2015-May-18 13:34N 40°39' W 074°06'1 0.6
2015-May-18 12:33N 40°39' W 074°05'1 0.7
2015-May-18 11:33N 40°39' W 074°06'2 1.5
2015-May-18 10:31N 40°38' W 074°08'0 0.0
2015-May-18 09:33N 40°38' W 074°08'0 0.0
2015-May-18 08:33N 40°38' W 074°08'0 0.0
2015-May-18 07:33N 40°38' W 074°08'0 0.0
2015-May-18 06:33N 40°38' W 074°08'4 4.3
2015-May-18 05:34N 40°36' W 074°03'4 4.3
2015-May-18 04:33N 40°38' W 074°08'0 0.0
2015-May-18 03:33N 40°38' W 074°08'0 0.0
2015-May-18 02:33N 40°38' W 074°08'0 0.0
2015-May-18 01:16N 40°38' W 074°08'0 0.0
2015-May-18 00:33N 40°38' W 074°08'0 0.0
2015-May-17 23:33N 40°38' W 074°08'0 0.0
2015-May-17 22:33N 40°38' W 074°08'0 0.0
2015-May-17 21:29N 40°38' W 074°08'0 0.0
2015-May-17 20:33N 40°38' W 074°08'0 0.0
2015-May-17 19:06N 40°38' W 074°08'0 0.0
2015-May-17 18:32N 40°38' W 074°08'0 0.0
2015-May-17 17:33N 40°38' W 074°08'4 1.9
2015-May-17 15:32N 40°37' W 074°12'1 0.4
2015-May-17 13:33N 40°38' W 074°12'3 0.6
2015-May-17 07:32N 40°38' W 074°08'0 0.0
2015-May-17 06:31N 40°38' W 074°08'1 1.3
2015-May-17 05:34N 40°38' W 074°09'1 1.2
2015-May-17 04:33N 40°38' W 074°08'0 0.0
2015-May-17 03:33N 40°38' W 074°08'0 0.0
2015-May-16 23:17N 40°38' W 074°08'0 0.0
2015-May-16 22:25N 40°38' W 074°08'3 3.5
2015-May-16 21:33N 40°41' W 074°08'1 0.5
2015-May-16 20:33N 40°41' W 074°08'2 2.4
2015-May-16 19:32N 40°38' W 074°08'0 0.0
2015-May-16 17:14N 40°38' W 074°08'0 0.1
2015-May-16 16:33N 40°38' W 074°08'0 0.0
2015-May-16 14:24N 40°38' W 074°08'0 0.0
2015-May-16 08:29N 40°38' W 074°08'0 0.0
2015-May-16 07:33N 40°38' W 074°08'0 0.0
2015-May-16 05:16N 40°38' W 074°08'6 8.0
2015-May-16 04:34N 40°44' W 074°06'6 5.6
2015-May-16 03:34N 40°49' W 074°02'1 1.0
2015-May-16 02:33N 40°48' W 074°03'3 2.7
2015-May-16 01:33N 40°46' W 074°05'2 2.0
2015-May-16 00:34N 40°44' W 074°05'2 2.3
2015-May-15 23:33N 40°42' W 074°07'2 1.8
2015-May-15 22:33N 40°44' W 074°07'2 1.9
2015-May-15 21:34N 40°42' W 074°07'4 1.8
2015-May-15 19:21N 40°38' W 074°08'0 0.0
2015-May-15 17:11N 40°38' W 074°08'0 0.0
2015-May-15 15:33N 40°38' W 074°08'0 0.0
2015-May-15 14:21N 40°38' W 074°08'0 0.0
2015-May-15 13:30N 40°38' W 074°08'4 2.0
2015-May-15 11:30N 40°36' W 074°12'2 1.7
2015-May-15 10:33N 40°38' W 074°12'5 4.6
2015-May-15 09:33N 40°39' W 074°06'1 0.9
2015-May-15 08:34N 40°39' W 074°05'2 2.2
2015-May-15 07:33N 40°38' W 074°08'0 0.0
2015-May-15 06:33N 40°38' W 074°08'0 0.0
2015-May-15 05:33N 40°38' W 074°08'0 0.0
2015-May-15 04:32N 40°38' W 074°08'0 0.0
2015-May-15 03:33N 40°38' W 074°08'0 0.0
2015-May-15 02:33N 40°38' W 074°08'0 0.0
2015-May-15 01:33N 40°38' W 074°08'0 0.0
2015-May-15 00:33N 40°38' W 074°08'0 0.0
2015-May-14 23:32N 40°38' W 074°08'0 0.0
2015-May-14 22:32N 40°38' W 074°08'0 0.0
2015-May-14 21:33N 40°38' W 074°08'0 0.0
2015-May-14 20:31N 40°38' W 074°08'0 0.0
2015-May-14 19:33N 40°38' W 074°08'0 0.0
2015-May-14 18:33N 40°38' W 074°08'0 0.0
2015-May-14 16:26N 40°38' W 074°08'0 0.0
2015-May-14 15:11N 40°38' W 074°08'0 0.0
2015-May-14 04:04N 40°38' W 074°08'0 0.0
2015-May-14 02:09N 40°38' W 074°08'1 2.0
2015-May-14 01:33N 40°39' W 074°06'3 2.7
2015-May-14 00:32N 40°38' W 074°03'1 0.6
2015-May-13 23:34N 40°38' W 074°03'3 3.3
2015-May-13 22:33N 40°38' W 074°08'0 0.0
2015-May-13 21:33N 40°38' W 074°08'0 0.0
2015-May-13 20:33N 40°38' W 074°08'0 0.0
2015-May-13 19:33N 40°38' W 074°08'0 0.0
2015-May-13 18:33N 40°38' W 074°08'0 0.0
2015-May-13 17:34N 40°38' W 074°08'0 0.0
2015-May-13 16:33N 40°38' W 074°08'0 0.0
2015-May-13 14:32N 40°38' W 074°08'0 0.0
2015-May-13 13:32N 40°38' W 074°08'0 0.0
2015-May-13 12:21N 40°38' W 074°08'0 0.0
2015-May-13 11:33N 40°38' W 074°08'0 0.0
2015-May-13 10:31N 40°38' W 074°08'1 1.4
2015-May-13 09:34N 40°40' W 074°09'  
Track history (hours):
 
Tides and Currents Weather Stations Pressure Air Temp Water Temp Dewpoint Dewpoint Depression Visibility Wind Speed Wind Dir Waves Ship Positions

James Turecamo

Owner: Moran Towing Corporation, New Canaan, CT. More information available from US FCC via Universal Licensing System and Coast Guard Vessel Documentation Center.

Last reported at 2015-May-23 09:07 UTC. Time now 2015-May-23 11:49 UTC.
Position N 40°38' W 074°08'.

Length 27 m; draft 4.5 m.

Type: Tug. MMSI: 367073380.

Date/timePositionNaut miles runAvg speedWind from/ knotsBaromVisibWave heightAir tempDewpointWater temp
2015-May-23 09:07N 40°38' W 074°08'0 0.0
2015-May-23 08:33N 40°38' W 074°08'0 0.0
2015-May-23 07:22N 40°38' W 074°08'5 5.8
2015-May-23 06:32N 40°35' W 074°12'1 0.8
2015-May-23 05:14N 40°36' W 074°12'3 4.3
2015-May-23 04:33N 40°39' W 074°10'2 0.6
2015-May-23 01:30N 40°38' W 074°08'0 0.0
2015-May-22 23:03N 40°38' W 074°08'0 0.0
2015-May-22 22:15N 40°38' W 074°08'3 4.6
2015-May-22 21:33N 40°42' W 074°08'1 1.5
2015-May-22 20:33N 40°40' W 074°08'1 0.6
2015-May-22 19:33N 40°40' W 074°09'2 1.8
2015-May-22 18:33N 40°39' W 074°07'0 0.1
2015-May-22 16:33N 40°39' W 074°07'4 0.8
2015-May-22 11:33N 40°38' W 074°12'5 2.1
2015-May-22 09:18N 40°34' W 074°14'3 1.0
2015-May-22 06:11N 40°36' W 074°12'1 1.0
2015-May-22 05:21N 40°37' W 074°12'4 1.8
2015-May-22 03:20N 40°38' W 074°08'0 0.0
2015-May-22 00:09N 40°38' W 074°08'0 0.0
2015-May-21 23:23N 40°38' W 074°08'0 0.0
2015-May-21 22:26N 40°38' W 074°08'0 0.0
2015-May-21 21:24N 40°38' W 074°08'0 0.0
2015-May-21 20:31N 40°38' W 074°08'0 0.0
2015-May-21 19:33N 40°38' W 074°08'3 2.5
2015-May-21 18:33N 40°41' W 074°08'3 0.4
2015-May-21 11:33N 40°38' W 074°08'0 0.0
2015-May-21 10:12N 40°38' W 074°08'0 0.0
2015-May-21 09:17N 40°38' W 074°08'0 0.0
2015-May-21 08:33N 40°38' W 074°08'0 0.0
2015-May-21 07:30N 40°38' W 074°08'0 0.0
2015-May-21 06:27N 40°38' W 074°08'0 0.0
2015-May-21 05:13N 40°38' W 074°08'0 0.0
2015-May-21 04:07N 40°38' W 074°08'0 0.0
2015-May-21 02:22N 40°38' W 074°08'0 0.0
2015-May-21 01:22N 40°38' W 074°08'0 0.0
2015-May-21 00:10N 40°38' W 074°08'7 8.2
2015-May-20 23:22N 40°33' W 074°13'4 1.6
2015-May-20 20:33N 40°38' W 074°12'3 3.3
2015-May-20 19:31N 40°38' W 074°08'0 0.0
2015-May-20 18:32N 40°38' W 074°08'2 2.0
2015-May-20 17:34N 40°39' W 074°05'2 1.9
2015-May-20 16:30N 40°38' W 074°08'0 0.0
2015-May-20 15:32N 40°38' W 074°08'0 0.0
2015-May-20 14:32N 40°38' W 074°08'0 0.0
2015-May-20 13:33N 40°38' W 074°08'3 3.4
2015-May-20 12:33N 40°38' W 074°12'2 1.5
2015-May-20 11:33N 40°39' W 074°10'5 5.4
2015-May-20 10:33N 40°38' W 074°03'3 2.8
2015-May-20 09:33N 40°39' W 074°07'1 0.3
2015-May-20 07:05N 40°38' W 074°08'0 0.0
2015-May-20 06:32N 40°38' W 074°08'0 0.0
2015-May-20 05:14N 40°38' W 074°08'4 5.4
2015-May-20 04:33N 40°41' W 074°04'1 0.6
2015-May-20 03:33N 40°41' W 074°04'2 2.0
2015-May-20 02:33N 40°39' W 074°04'0 0.4
2015-May-20 01:33N 40°38' W 074°04'0 0.0
2015-May-20 00:33N 40°38' W 074°04'1 1.2
2015-May-19 23:27N 40°39' W 074°06'1 1.7
2015-May-19 22:33N 40°38' W 074°08'0 0.0
2015-May-19 21:33N 40°38' W 074°08'0 0.0
2015-May-19 20:33N 40°38' W 074°08'0 0.0
2015-May-19 19:33N 40°38' W 074°08'0 0.0
2015-May-19 18:33N 40°38' W 074°08'3 3.0
2015-May-19 17:33N 40°41' W 074°08'3 2.8
2015-May-19 16:31N 40°38' W 074°08'3 2.8
2015-May-19 15:33N 40°41' W 074°08'2 1.8
2015-May-19 14:33N 40°39' W 074°09'1 0.6
2015-May-19 12:33N 40°38' W 074°08'0 0.0
2015-May-19 11:24N 40°38' W 074°08'3 3.6
2015-May-19 10:33N 40°42' W 074°08'0 0.3
2015-May-19 09:32N 40°42' W 074°09'2 2.1
2015-May-19 08:33N 40°40' W 074°09'2 0.7
2015-May-19 06:21N 40°38' W 074°08'1 0.6
2015-May-19 04:32N 40°39' W 074°09'9 8.6
2015-May-19 03:32N 40°31' W 074°15'4 2.1
2015-May-19 01:33N 40°35' W 074°13'0 0.3
2015-May-19 00:28N 40°35' W 074°13'4 1.5
2015-May-18 21:33N 40°39' W 074°10'3 3.2
2015-May-18 20:33N 40°42' W 074°08'0 0.4
2015-May-18 19:33N 40°42' W 074°09'0 0.2
2015-May-18 18:33N 40°42' W 074°08'6 5.8
2015-May-18 17:33N 40°37' W 074°12'0 0.0
2015-May-18 16:31N 40°37' W 074°12'4 4.1
2015-May-18 15:33N 40°38' W 074°08'0 0.0
2015-May-18 14:33N 40°38' W 074°08'2 1.6
2015-May-18 13:34N 40°39' W 074°06'1 0.6
2015-May-18 12:33N 40°39' W 074°05'1 0.7
2015-May-18 11:33N 40°39' W 074°06'2 1.5
2015-May-18 10:31N 40°38' W 074°08'0 0.0
2015-May-18 09:33N 40°38' W 074°08'0 0.0
2015-May-18 08:33N 40°38' W 074°08'0 0.0
2015-May-18 07:33N 40°38' W 074°08'0 0.0
2015-May-18 06:33N 40°38' W 074°08'4 4.3
2015-May-18 05:34N 40°36' W 074°03'4 4.3
2015-May-18 04:33N 40°38' W 074°08'0 0.0
2015-May-18 03:33N 40°38' W 074°08'0 0.0
2015-May-18 02:33N 40°38' W 074°08'0 0.0
2015-May-18 01:16N 40°38' W 074°08'0 0.0
2015-May-18 00:33N 40°38' W 074°08'0 0.0
2015-May-17 23:33N 40°38' W 074°08'0 0.0
2015-May-17 22:33N 40°38' W 074°08'0 0.0
2015-May-17 21:29N 40°38' W 074°08'0 0.0
2015-May-17 20:33N 40°38' W 074°08'0 0.0
2015-May-17 19:06N 40°38' W 074°08'0 0.0
2015-May-17 18:32N 40°38' W 074°08'0 0.0
2015-May-17 17:33N 40°38' W 074°08'4 1.9
2015-May-17 15:32N 40°37' W 074°12'1 0.4
2015-May-17 13:33N 40°38' W 074°12'3 0.6
2015-May-17 07:32N 40°38' W 074°08'0 0.0
2015-May-17 06:31N 40°38' W 074°08'1 1.3
2015-May-17 05:34N 40°38' W 074°09'1 1.2
2015-May-17 04:33N 40°38' W 074°08'0 0.0
2015-May-17 03:33N 40°38' W 074°08'0 0.0
2015-May-16 23:17N 40°38' W 074°08'0 0.0
2015-May-16 22:25N 40°38' W 074°08'3 3.5
2015-May-16 21:33N 40°41' W 074°08'1 0.5
2015-May-16 20:33N 40°41' W 074°08'2 2.4
2015-May-16 19:32N 40°38' W 074°08'0 0.0
2015-May-16 17:14N 40°38' W 074°08'0 0.1
2015-May-16 16:33N 40°38' W 074°08'0 0.0
2015-May-16 14:24N 40°38' W 074°08'0 0.0
2015-May-16 08:29N 40°38' W 074°08'0 0.0
2015-May-16 07:33N 40°38' W 074°08'0 0.0
2015-May-16 05:16N 40°38' W 074°08'6 8.0
2015-May-16 04:34N 40°44' W 074°06'6 5.6
2015-May-16 03:34N 40°49' W 074°02'1 1.0
2015-May-16 02:33N 40°48' W 074°03'3 2.7
2015-May-16 01:33N 40°46' W 074°05'2 2.0
2015-May-16 00:34N 40°44' W 074°05'2 2.3
2015-May-15 23:33N 40°42' W 074°07'2 1.8
2015-May-15 22:33N 40°44' W 074°07'2 1.9
2015-May-15 21:34N 40°42' W 074°07'4 1.8
2015-May-15 19:21N 40°38' W 074°08'0 0.0
2015-May-15 17:11N 40°38' W 074°08'0 0.0
2015-May-15 15:33N 40°38' W 074°08'0 0.0
2015-May-15 14:21N 40°38' W 074°08'0 0.0
2015-May-15 13:30N 40°38' W 074°08'4 2.0
2015-May-15 11:30N 40°36' W 074°12'2 1.7
2015-May-15 10:33N 40°38' W 074°12'5 4.6
2015-May-15 09:33N 40°39' W 074°06'1 0.9
2015-May-15 08:34N 40°39' W 074°05'2 2.2
2015-May-15 07:33N 40°38' W 074°08'0 0.0
2015-May-15 06:33N 40°38' W 074°08'0 0.0
2015-May-15 05:33N 40°38' W 074°08'0 0.0
2015-May-15 04:32N 40°38' W 074°08'0 0.0
2015-May-15 03:33N 40°38' W 074°08'0 0.0
2015-May-15 02:33N 40°38' W 074°08'0 0.0
2015-May-15 01:33N 40°38' W 074°08'0 0.0
2015-May-15 00:33N 40°38' W 074°08'0 0.0
2015-May-14 23:32N 40°38' W 074°08'0 0.0
2015-May-14 22:32N 40°38' W 074°08'0 0.0
2015-May-14 21:33N 40°38' W 074°08'0 0.0
2015-May-14 20:31N 40°38' W 074°08'0 0.0
2015-May-14 19:33N 40°38' W 074°08'0 0.0
2015-May-14 18:33N 40°38' W 074°08'0 0.0
2015-May-14 16:26N 40°38' W 074°08'0 0.0
2015-May-14 15:11N 40°38' W 074°08'0 0.0
2015-May-14 04:04N 40°38' W 074°08'0 0.0
2015-May-14 02:09N 40°38' W 074°08'1 2.0
2015-May-14 01:33N 40°39' W 074°06'3 2.7
2015-May-14 00:32N 40°38' W 074°03'1 0.6
2015-May-13 23:34N 40°38' W 074°03'3 3.3
2015-May-13 22:33N 40°38' W 074°08'0 0.0
2015-May-13 21:33N 40°38' W 074°08'0 0.0
2015-May-13 20:33N 40°38' W 074°08'0 0.0
2015-May-13 19:33N 40°38' W 074°08'0 0.0
2015-May-13 18:33N 40°38' W 074°08'0 0.0
2015-May-13 17:34N 40°38' W 074°08'0 0.0
2015-May-13 16:33N 40°38' W 074°08'0 0.0
2015-May-13 14:32N 40°38' W 074°08'0 0.0
2015-May-13 13:32N 40°38' W 074°08'0 0.0
2015-May-13 12:21N 40°38' W 074°08'0 0.0
2015-May-13 11:33N 40°38' W 074°08'0 0.0
2015-May-13 10:31N 40°38' W 074°08'1 1.4
2015-May-13 09:34N 40°40' W 074°09'  

Dump ship's entire track history